Time;durP1;ratioP1;P1;durP2;ratioP2;P2;SDS_P1;SDS_P2;PMS_P1;PMS_P2;Temp;Humidity;BMP_temperature;BMP_pressure;BME280_temperature;BME280_humidity;BME280_pressure;Samples;Min_cycle;Max_cycle;Signal;HPM_P1;HPM_P2
2022/04/08 00:00:26;;;;;;;4.32;1.35;;;8.80;83.90;;;;;;4183367;28;20083;-75
2022/04/08 00:02:27;;;;;;;3.95;0.98;;;8.80;84.80;;;;;;4180412;28;20100;-77
2022/04/08 00:04:32;;;;;;;5.43;1.23;;;8.80;83.50;;;;;;4184753;28;20057;-75
2022/04/08 00:06:34;;;;;;;5.90;0.98;;;8.80;84.10;;;;;;4185355;28;20883;-76
2022/04/08 00:08:35;;;;;;;4.68;1.02;;;8.70;84.30;;;;;;4180253;28;20065;-75
2022/04/08 00:10:37;;;;;;;13.02;1.55;;;8.70;84.10;;;;;;4183481;28;20057;-76
2022/04/08 00:12:39;;;;;;;4.85;1.00;;;8.70;84.10;;;;;;4186298;28;20653;-75
2022/04/08 00:14:40;;;;;;;5.47;1.20;;;8.70;84.40;;;;;;4189663;28;20136;-74
2022/04/08 00:16:42;;;;;;;3.00;0.90;;;8.70;84.30;;;;;;4184079;28;20088;-74
2022/04/08 00:18:45;;;;;;;6.90;1.60;;;8.70;83.80;;;;;;4181544;28;20207;-76
2022/04/08 00:20:47;;;;;;;4.50;1.35;;;8.70;83.60;;;;;;4180250;28;20081;-75
2022/04/08 00:22:49;;;;;;;3.72;1.23;;;8.70;83.90;;;;;;4179843;28;20094;-74
2022/04/08 00:24:50;;;;;;;5.22;1.23;;;8.70;83.80;;;;;;4179908;28;20069;-74
2022/04/08 00:26:52;;;;;;;3.17;1.05;;;8.70;83.40;;;;;;4181551;28;20232;-75
2022/04/08 00:28:53;;;;;;;3.88;1.00;;;8.70;83.80;;;;;;4181106;28;20064;-74
2022/04/08 00:30:55;;;;;;;4.18;1.13;;;8.70;83.80;;;;;;4179901;28;20061;-75
2022/04/08 00:32:57;;;;;;;3.25;1.13;;;8.70;84.30;;;;;;4184681;28;20856;-75
2022/04/08 00:34:59;;;;;;;6.40;1.15;;;8.70;84.40;;;;;;4182719;28;20640;-75
2022/04/08 00:37:01;;;;;;;4.88;1.10;;;8.60;84.50;;;;;;4178673;28;20985;-75
2022/04/08 00:39:03;;;;;;;5.60;1.52;;;8.60;84.60;;;;;;4182918;28;20053;-74
2022/04/08 00:41:04;;;;;;;7.10;1.00;;;8.60;83.70;;;;;;4187352;28;20061;-75
2022/04/08 00:43:14;;;;;;;4.05;1.00;;;8.60;82.60;;;;;;4182514;28;20848;-74
2022/04/08 00:45:15;;;;;;;7.03;0.82;;;8.60;82.40;;;;;;4181189;28;20061;-74
2022/04/08 00:47:17;;;;;;;5.43;1.30;;;8.60;82.10;;;;;;4180673;28;20054;-74
2022/04/08 00:49:19;;;;;;;5.95;1.20;;;8.60;81.90;;;;;;4180225;28;20096;-74
2022/04/08 00:51:22;;;;;;;4.05;1.00;;;8.60;82.30;;;;;;4180053;28;20061;-74
2022/04/08 00:53:24;;;;;;;2.95;0.90;;;8.60;82.10;;;;;;4187108;28;20796;-75
2022/04/08 00:55:26;;;;;;;3.83;0.90;;;8.50;82.60;;;;;;4184170;28;20064;-75
2022/04/08 00:57:28;;;;;;;3.88;0.88;;;8.50;82.50;;;;;;4183063;28;20820;-75
2022/04/08 00:59:30;;;;;;;3.45;0.70;;;8.50;82.90;;;;;;4180646;28;20092;-75
2022/04/08 01:01:32;;;;;;;3.75;1.65;;;8.50;82.50;;;;;;4189734;28;20113;-76
2022/04/08 01:03:34;;;;;;;3.75;1.02;;;8.50;81.60;;;;;;4186882;28;20065;-75
2022/04/08 01:05:36;;;;;;;6.00;1.80;;;8.50;82.20;;;;;;4183600;28;20057;-75
2022/04/08 01:07:38;;;;;;;6.10;1.10;;;8.50;81.60;;;;;;4182851;28;20650;-75
2022/04/08 01:09:40;;;;;;;8.15;1.55;;;8.50;81.80;;;;;;4182734;28;20833;-75
2022/04/08 01:11:43;;;;;;;4.10;2.97;;;8.50;81.40;;;;;;4185028;28;20092;-74
2022/04/08 01:13:45;;;;;;;9.88;1.88;;;8.50;81.50;;;;;;4182409;28;20148;-75
2022/04/08 01:15:47;;;;;;;6.25;1.40;;;8.50;81.40;;;;;;4189886;28;20057;-74
2022/04/08 01:17:49;;;;;;;3.25;0.90;;;8.50;81.40;;;;;;4182597;28;20164;-74
2022/04/08 01:19:51;;;;;;;5.18;1.17;;;8.50;81.20;;;;;;4187807;28;20155;-75
2022/04/08 01:21:52;;;;;;;2.28;1.00;;;8.50;81.50;;;;;;4186342;28;20143;-74
2022/04/08 01:23:56;;;;;;;2.28;1.10;;;8.50;81.30;;;;;;4182248;28;20683;-74
2022/04/08 01:25:57;;;;;;;3.95;1.10;;;8.40;81.20;;;;;;4182576;28;20064;-76
2022/04/08 01:27:59;;;;;;;6.13;1.30;;;8.40;81.50;;;;;;4180471;28;20060;-78
2022/04/08 01:30:02;;;;;;;8.10;1.75;;;8.40;81.60;;;;;;4183704;28;20772;-75
2022/04/08 01:32:05;;;;;;;5.57;1.30;;;8.40;82.10;;;;;;4182333;28;20053;-75
2022/04/08 01:34:06;;;;;;;4.90;1.08;;;8.40;82.40;;;;;;4186340;28;20058;-74
2022/04/08 01:36:08;;;;;;;2.65;1.00;;;8.40;82.30;;;;;;4185798;28;20101;-74
2022/04/08 01:38:10;;;;;;;6.35;1.27;;;8.40;82.90;;;;;;4184025;28;20064;-75
2022/04/08 01:40:12;;;;;;;5.45;1.13;;;8.40;81.40;;;;;;4183258;28;20064;-75
2022/04/08 01:42:14;;;;;;;3.13;0.75;;;8.40;81.60;;;;;;4177643;28;20057;-75
2022/04/08 01:44:16;;;;;;;2.17;0.90;;;8.40;82.10;;;;;;4181737;28;20662;-76
2022/04/08 01:46:17;;;;;;;4.38;1.33;;;8.30;80.70;;;;;;4183003;28;20068;-75
2022/04/08 01:48:19;;;;;;;5.10;1.00;;;8.30;80.90;;;;;;4184497;28;20061;-75
2022/04/08 01:50:22;;;;;;;4.57;1.20;;;8.30;80.50;;;;;;4182140;28;20750;-75
2022/04/08 01:52:23;;;;;;;1.80;0.90;;;8.20;80.10;;;;;;4180903;28;20097;-76
2022/04/08 01:54:25;;;;;;;3.53;1.00;;;8.20;79.90;;;;;;4181625;28;20088;-75
2022/04/08 01:56:27;;;;;;;1.92;0.73;;;8.20;79.20;;;;;;4183921;28;20792;-75
2022/04/08 01:58:28;;;;;;;4.47;1.02;;;8.20;79.20;;;;;;4182214;28;20133;-75
2022/04/08 02:00:31;;;;;;;2.65;0.70;;;8.20;79.60;;;;;;4181654;28;20065;-75
2022/04/08 02:02:32;;;;;;;4.57;0.90;;;8.20;79.70;;;;;;4184436;28;21062;-76
2022/04/08 02:04:35;;;;;;;7.10;1.95;;;8.20;79.70;;;;;;4197180;28;20049;-75
2022/04/08 02:06:40;;;;;;;2.45;1.10;;;8.10;80.10;;;;;;4182946;28;20061;-74
2022/04/08 02:08:42;;;;;;;2.80;1.55;;;8.10;79.80;;;;;;4182024;28;20165;-75
2022/04/08 02:10:44;;;;;;;5.00;0.90;;;8.10;80.40;;;;;;4181582;28;20153;-76
2022/04/08 02:12:45;;;;;;;5.38;0.80;;;8.10;80.50;;;;;;4187794;28;20801;-76
2022/04/08 02:14:47;;;;;;;1.10;0.80;;;8.10;81.40;;;;;;4183522;28;20057;-75
2022/04/08 02:16:49;;;;;;;4.15;0.93;;;8.00;81.60;;;;;;4181783;28;20057;-76
2022/04/08 02:18:51;;;;;;;5.28;0.95;;;8.00;81.00;;;;;;4181186;28;20089;-76
2022/04/08 02:20:53;;;;;;;3.45;1.23;;;8.00;81.20;;;;;;4177697;28;20110;-76
2022/04/08 02:22:54;;;;;;;2.53;0.88;;;7.90;81.20;;;;;;4188340;28;20977;-77
2022/04/08 02:24:57;;;;;;;4.13;0.90;;;7.90;81.60;;;;;;4181061;28;20640;-76
2022/04/08 02:26:59;;;;;;;1.98;0.90;;;7.90;82.00;;;;;;4181275;28;20616;-75
2022/04/08 02:29:01;;;;;;;4.65;2.15;;;7.80;82.30;;;;;;4181023;28;20062;-76
2022/04/08 02:31:03;;;;;;;2.92;1.23;;;7.80;83.10;;;;;;4182421;28;20057;-76
2022/04/08 02:33:05;;;;;;;3.80;0.98;;;7.80;83.00;;;;;;4182624;28;20057;-76
2022/04/08 02:35:07;;;;;;;6.68;1.70;;;7.80;83.40;;;;;;4181326;28;20116;-76
2022/04/08 02:37:09;;;;;;;3.80;1.08;;;7.80;83.80;;;;;;4185438;28;20135;-76
2022/04/08 02:39:11;;;;;;;2.83;0.73;;;7.80;83.90;;;;;;4181251;28;20179;-76
2022/04/08 02:41:13;;;;;;;2.40;1.00;;;7.80;84.10;;;;;;4183221;28;20168;-76
2022/04/08 02:43:15;;;;;;;8.98;1.27;;;7.80;84.30;;;;;;4181658;28;20313;-76
2022/04/08 02:45:17;;;;;;;3.65;1.17;;;7.80;84.50;;;;;;4185789;28;20057;-76
2022/04/08 02:47:18;;;;;;;6.57;0.73;;;7.80;84.50;;;;;;4186055;28;20833;-76
2022/04/08 02:49:20;;;;;;;3.25;1.42;;;7.80;84.90;;;;;;4184972;28;20061;-76
2022/04/08 02:51:22;;;;;;;2.47;1.05;;;7.80;85.00;;;;;;4182030;28;20940;-76
2022/04/08 02:53:23;;;;;;;1.40;0.80;;;7.70;84.70;;;;;;4180587;28;20904;-76
2022/04/08 02:55:25;;;;;;;2.65;0.93;;;7.70;84.80;;;;;;4184222;28;20061;-76
2022/04/08 02:57:27;;;;;;;4.75;1.70;;;7.70;84.70;;;;;;4183423;28;20090;-76
2022/04/08 02:59:28;;;;;;;3.95;1.13;;;7.70;83.80;;;;;;4182537;28;20064;-76
2022/04/08 03:01:30;;;;;;;18.67;6.80;;;7.70;82.40;;;;;;4180914;28;20041;-75
2022/04/08 03:03:32;;;;;;;7.47;4.38;;;7.70;82.10;;;;;;4180399;28;20096;-75
2022/04/08 03:05:34;;;;;;;9.02;2.80;;;7.70;81.30;;;;;;4189893;28;20052;-76
2022/04/08 03:07:36;;;;;;;3.17;1.65;;;7.70;81.60;;;;;;4186666;28;20875;-76
2022/04/08 03:09:37;;;;;;;3.30;1.00;;;7.80;80.80;;;;;;4179969;28;20050;-75
2022/04/08 03:11:39;;;;;;;4.05;1.30;;;7.70;80.20;;;;;;4184697;28;20112;-75
2022/04/08 03:13:41;;;;;;;4.65;2.00;;;7.70;79.90;;;;;;4180308;28;20057;-75
2022/04/08 03:15:42;;;;;;;7.13;1.58;;;7.70;80.40;;;;;;4181600;28;20057;-74
2022/04/08 03:17:45;;;;;;;4.93;0.93;;;7.70;80.30;;;;;;4184346;28;20064;-76
2022/04/08 03:19:47;;;;;;;2.20;0.90;;;7.60;80.40;;;;;;4181159;28;20058;-75
2022/04/08 03:21:49;;;;;;;6.93;1.15;;;7.60;80.90;;;;;;4179909;28;20057;-75
2022/04/08 03:23:51;;;;;;;5.45;0.85;;;7.60;80.00;;;;;;4186530;28;20194;-75
2022/04/08 03:25:52;;;;;;;6.68;1.10;;;7.60;80.00;;;;;;4186234;28;20084;-75
2022/04/08 03:27:54;;;;;;;4.15;0.80;;;7.60;80.30;;;;;;4180732;28;20068;-76
2022/04/08 03:29:56;;;;;;;3.75;0.80;;;7.50;80.00;;;;;;4178895;28;20080;-74
2022/04/08 03:31:58;;;;;;;3.45;0.90;;;7.50;79.90;;;;;;4186998;28;20050;-75
2022/04/08 03:34:00;;;;;;;3.60;1.17;;;7.50;80.30;;;;;;4181142;28;20060;-75
2022/04/08 03:36:01;;;;;;;5.15;1.20;;;7.60;79.80;;;;;;4181850;28;20630;-76
2022/04/08 03:38:04;;;;;;;7.35;1.23;;;7.50;79.80;;;;;;4180751;28;20176;-75
2022/04/08 03:40:06;;;;;;;7.35;1.10;;;7.50;80.00;;;;;;4177128;28;20875;-75
2022/04/08 03:42:08;;;;;;;9.57;1.20;;;7.50;79.70;;;;;;4182764;28;20172;-76
2022/04/08 03:44:09;;;;;;;2.05;0.75;;;7.50;80.10;;;;;;4185823;28;20063;-75
2022/04/08 03:46:13;;;;;;;7.07;1.77;;;7.50;80.00;;;;;;4180029;28;20057;-75
2022/04/08 03:48:15;;;;;;;6.88;1.08;;;7.50;80.00;;;;;;4179898;28;20065;-76
2022/04/08 03:50:16;;;;;;;2.35;0.82;;;7.50;79.20;;;;;;4183893;28;20056;-76
2022/04/08 03:52:18;;;;;;;3.60;0.82;;;7.50;79.90;;;;;;4184167;28;20111;-76
2022/04/08 03:54:20;;;;;;;3.63;0.77;;;7.50;79.90;;;;;;4180186;28;20065;-75
2022/04/08 03:56:22;;;;;;;3.45;0.70;;;7.50;80.00;;;;;;4179672;28;20101;-75
2022/04/08 03:58:23;;;;;;;3.20;0.70;;;7.40;79.20;;;;;;4181157;28;20164;-75
2022/04/08 04:00:25;;;;;;;4.15;1.27;;;7.40;79.50;;;;;;4185039;28;20998;-76
2022/04/08 04:02:27;;;;;;;5.00;2.05;;;7.40;79.60;;;;;;4182828;28;20129;-76
2022/04/08 04:04:29;;;;;;;7.55;1.05;;;7.40;79.50;;;;;;4179912;28;20061;-76
2022/04/08 04:06:30;;;;;;;4.97;1.13;;;7.40;79.20;;;;;;4179541;28;20050;-76
2022/04/08 04:08:32;;;;;;;1.40;0.55;;;7.50;79.60;;;;;;4182929;28;20096;-76
2022/04/08 04:10:34;;;;;;;2.55;1.08;;;7.50;79.20;;;;;;4184954;28;20879;-76
2022/04/08 04:12:36;;;;;;;3.42;1.38;;;7.50;78.90;;;;;;4178368;28;20111;-75
2022/04/08 04:14:38;;;;;;;5.03;1.00;;;7.50;78.70;;;;;;4179458;28;20061;-75
2022/04/08 04:16:40;;;;;;;4.78;0.93;;;7.50;79.00;;;;;;4186782;28;20176;-76
2022/04/08 04:18:42;;;;;;;4.75;1.00;;;7.50;79.00;;;;;;4180246;28;20067;-75
2022/04/08 04:20:44;;;;;;;4.03;1.05;;;7.50;79.20;;;;;;4183481;28;20057;-76
2022/04/08 04:22:45;;;;;;;2.08;0.77;;;7.40;79.60;;;;;;4182321;28;20262;-76
2022/04/08 04:24:47;;;;;;;5.13;1.52;;;7.40;79.50;;;;;;4177743;28;20069;-76
2022/04/08 04:26:49;;;;;;;6.82;1.90;;;7.40;79.50;;;;;;4181243;28;20045;-75
2022/04/08 04:28:50;;;;;;;7.88;1.65;;;7.40;79.70;;;;;;4187586;28;20080;-75
2022/04/08 04:30:53;;;;;;;3.58;0.80;;;7.40;80.10;;;;;;4184038;28;21217;-76
2022/04/08 04:32:56;;;;;;;4.10;1.30;;;7.40;80.60;;;;;;4184876;28;20053;-75
2022/04/08 04:35:06;;;;;;;5.05;1.10;;;7.50;81.00;;;;;;4191358;28;20048;-76
2022/04/08 04:37:10;;;;;;;4.45;1.25;;;7.50;80.70;;;;;;4182892;28;20800;-77
2022/04/08 04:39:12;;;;;;;7.68;1.23;;;7.50;80.60;;;;;;4191749;23;20135;-78
2022/04/08 04:41:15;;;;;;;2.13;1.00;;;7.50;80.90;;;;;;4172246;28;21155;-79
2022/04/08 04:43:16;;;;;;;6.25;0.98;;;7.50;81.50;;;;;;4174610;28;20068;-78
2022/04/08 04:45:19;;;;;;;7.18;1.10;;;7.60;81.30;;;;;;4182263;28;20057;-78
2022/04/08 04:47:21;;;;;;;7.32;1.15;;;7.60;81.10;;;;;;4182399;28;20101;-77
2022/04/08 04:49:23;;;;;;;2.13;0.75;;;7.60;81.40;;;;;;4180369;28;20068;-78
2022/04/08 04:51:24;;;;;;;3.60;0.88;;;7.60;80.90;;;;;;4180267;28;20065;-78
2022/04/08 04:53:26;;;;;;;7.18;1.20;;;7.60;81.60;;;;;;4184010;28;21022;-77
2022/04/08 04:55:28;;;;;;;4.88;0.90;;;7.70;81.50;;;;;;4184360;28;20055;-78
2022/04/08 04:57:30;;;;;;;3.42;1.08;;;7.70;81.50;;;;;;4186744;28;20104;-78
2022/04/08 04:59:31;;;;;;;3.88;1.20;;;7.70;81.80;;;;;;4185782;28;20058;-78
2022/04/08 05:01:33;;;;;;;3.60;0.90;;;7.70;81.60;;;;;;4184724;28;20055;-79
2022/04/08 05:03:35;;;;;;;2.92;0.82;;;7.70;81.50;;;;;;4183764;28;20092;-77
2022/04/08 05:05:37;;;;;;;7.75;1.20;;;7.80;81.60;;;;;;4206143;28;20054;-77
2022/04/08 05:07:39;;;;;;;1.52;0.77;;;7.80;81.80;;;;;;4182949;28;20042;-79
2022/04/08 05:09:41;;;;;;;5.22;1.05;;;7.70;80.50;;;;;;4184404;28;20057;-78
2022/04/08 05:11:43;;;;;;;4.22;1.50;;;7.70;81.00;;;;;;4186482;28;20903;-78
2022/04/08 05:13:45;;;;;;;1.80;0.82;;;7.70;81.30;;;;;;4189076;28;20984;-78
2022/04/08 05:15:47;;;;;;;10.43;1.63;;;7.80;81.40;;;;;;4192256;28;20073;-78
2022/04/08 05:17:48;;;;;;;5.22;1.38;;;7.80;81.80;;;;;;4179449;28;20076;-79
2022/04/08 05:19:50;;;;;;;2.53;0.90;;;7.80;81.50;;;;;;4185311;28;20064;-78
2022/04/08 05:21:52;;;;;;;4.15;1.15;;;7.80;81.30;;;;;;4182421;28;20097;-78
2022/04/08 05:23:54;;;;;;;3.50;1.70;;;7.80;81.00;;;;;;4180315;28;20057;-79
2022/04/08 05:25:57;;;;;;;3.65;1.10;;;7.90;81.00;;;;;;4182474;28;20057;-77
2022/04/08 05:27:58;;;;;;;4.22;0.82;;;7.90;80.50;;;;;;4181339;28;20045;-78
2022/04/08 05:30:12;;;;;;;3.58;0.73;;;7.90;80.90;;;;;;4185883;28;20052;-77
2022/04/08 05:32:14;;;;;;;3.33;0.77;;;7.90;81.20;;;;;;4183878;28;20061;-77
2022/04/08 05:34:16;;;;;;;6.38;1.17;;;7.90;80.90;;;;;;4180196;28;20064;-78
2022/04/08 05:36:17;;;;;;;3.45;1.02;;;8.00;80.80;;;;;;4184360;28;20061;-78
2022/04/08 05:38:19;;;;;;;4.15;0.95;;;8.00;81.20;;;;;;4176984;28;20057;-78
2022/04/08 05:40:21;;;;;;;4.70;0.70;;;8.10;80.90;;;;;;4177277;28;20062;-78
2022/04/08 05:42:23;;;;;;;3.55;1.13;;;8.10;80.90;;;;;;4184105;28;20128;-78
2022/04/08 05:44:25;;;;;;;5.85;0.80;;;8.10;81.40;;;;;;4180078;28;20897;-78
2022/04/08 05:46:26;;;;;;;11.68;3.88;;;8.10;81.10;;;;;;4178262;28;20061;-78
2022/04/08 05:48:28;;;;;;;18.00;8.50;;;8.10;80.40;;;;;;4179632;28;20426;-77
2022/04/08 05:50:34;;;;;;;7.15;1.33;;;8.10;80.90;;;;;;4183201;28;20054;-78
2022/04/08 05:52:36;;;;;;;2.35;1.10;;;8.10;80.10;;;;;;4180141;28;20113;-78
2022/04/08 05:54:37;;;;;;;10.18;4.35;;;8.10;80.50;;;;;;4175696;28;20059;-79
2022/04/08 05:56:39;;;;;;;5.25;3.38;;;8.00;80.50;;;;;;4179012;28;20041;-78
2022/04/08 05:58:41;;;;;;;4.45;2.05;;;8.10;81.90;;;;;;4168548;28;20081;-79
2022/04/08 06:00:42;;;;;;;6.50;1.08;;;8.10;82.90;;;;;;4180769;28;20156;-77
2022/04/08 06:02:45;;;;;;;5.55;1.45;;;8.00;82.90;;;;;;4177643;28;20116;-80
2022/04/08 06:04:47;;;;;;;6.05;2.88;;;8.00;82.80;;;;;;4185839;28;20049;-78
2022/04/08 06:06:50;;;;;;;3.83;0.90;;;8.10;84.40;;;;;;4181585;28;20038;-77
2022/04/08 06:08:52;;;;;;;7.15;1.27;;;8.10;84.70;;;;;;4185120;28;20057;-78
2022/04/08 06:10:54;;;;;;;5.22;4.20;;;8.10;85.00;;;;;;4184878;28;20894;-77
2022/04/08 06:12:56;;;;;;;10.32;4.07;;;8.10;85.80;;;;;;4178909;28;20160;-78
2022/04/08 06:14:59;;;;;;;5.88;2.20;;;8.10;88.00;;;;;;4180635;28;20120;-78
2022/04/08 06:17:00;;;;;;;4.82;1.20;;;8.00;90.10;;;;;;4183260;28;20200;-79
2022/04/08 06:19:02;;;;;;;6.28;1.13;;;7.90;90.80;;;;;;4186593;28;20091;-78
2022/04/08 06:21:04;;;;;;;2.47;0.93;;;7.90;90.60;;;;;;4186388;28;20045;-78
2022/04/08 06:23:06;;;;;;;6.25;0.90;;;7.80;90.90;;;;;;4180996;28;20135;-77
2022/04/08 06:25:09;;;;;;;3.65;0.80;;;7.80;91.00;;;;;;4174381;28;20093;-79
2022/04/08 06:27:11;;;;;;;3.40;0.70;;;7.70;91.10;;;;;;4179383;28;20912;-77
2022/04/08 06:29:13;;;;;;;3.55;0.88;;;7.70;91.60;;;;;;4182109;28;20061;-79
2022/04/08 06:31:19;;;;;;;5.43;1.00;;;7.70;91.60;;;;;;4181192;28;20135;-78
2022/04/08 06:33:21;;;;;;;3.92;0.95;;;7.70;92.20;;;;;;4176700;28;20054;-78
2022/04/08 06:35:22;;;;;;;3.13;0.90;;;7.60;92.60;;;;;;4177441;28;20061;-78
2022/04/08 06:37:28;;;;;;;4.88;0.88;;;7.60;92.90;;;;;;4184797;28;20228;-78
2022/04/08 06:39:31;;;;;;;3.58;1.30;;;7.50;93.30;;;;;;4185334;28;20068;-79
2022/04/08 06:41:33;;;;;;;2.80;0.98;;;7.40;93.40;;;;;;4181660;28;20750;-79
2022/04/08 06:43:34;;;;;;;2.25;1.13;;;7.40;93.30;;;;;;4178981;28;20045;-78
2022/04/08 06:45:36;;;;;;;5.07;0.80;;;7.50;93.30;;;;;;4187995;28;20085;-78
2022/04/08 06:47:48;;;;;;;2.45;0.95;;;7.40;93.30;;;;;;4181724;28;20760;-79
2022/04/08 06:49:50;;;;;;;5.15;0.88;;;7.40;93.80;;;;;;4179980;28;20084;-78
2022/04/08 06:51:53;;;;;;;3.80;1.10;;;7.40;94.90;;;;;;4178959;28;20077;-76
2022/04/08 06:53:55;;;;;;;6.75;0.80;;;7.40;94.70;;;;;;4177280;28;20045;-78
2022/04/08 06:55:56;;;;;;;1.27;0.70;;;7.40;94.70;;;;;;4175166;28;20058;-77
2022/04/08 06:57:59;;;;;;;2.58;0.75;;;7.40;94.90;;;;;;4204504;28;20067;-77
2022/04/08 07:00:03;;;;;;;5.35;0.60;;;7.40;95.60;;;;;;4181872;28;20854;-78
2022/04/08 07:02:05;;;;;;;2.00;0.90;;;7.30;95.70;;;;;;4175822;28;20061;-78
2022/04/08 07:04:06;;;;;;;5.78;0.82;;;7.40;95.70;;;;;;4187752;28;20054;-77
2022/04/08 07:06:08;;;;;;;4.95;1.42;;;7.40;95.60;;;;;;4180339;28;20076;-78
2022/04/08 07:08:10;;;;;;;6.60;1.98;;;7.50;95.60;;;;;;4186035;28;20053;-78
2022/04/08 07:10:12;;;;;;;3.50;0.80;;;7.50;95.60;;;;;;4183908;28;20046;-77
2022/04/08 07:12:14;;;;;;;5.75;0.75;;;7.50;95.50;;;;;;4183269;28;20186;-77
2022/04/08 07:14:16;;;;;;;4.38;0.90;;;7.60;96.10;;;;;;4184375;28;20062;-78
2022/04/08 07:16:17;;;;;;;5.72;1.05;;;7.60;96.10;;;;;;4189245;28;20061;-78
2022/04/08 07:18:21;;;;;;;3.60;0.75;;;7.50;96.60;;;;;;4184044;28;20113;-78
2022/04/08 07:20:23;;;;;;;2.78;0.93;;;7.40;97.40;;;;;;4181551;28;20068;-79
2022/04/08 07:22:26;;;;;;;3.33;0.80;;;7.40;97.40;;;;;;4179462;28;20812;-80
2022/04/08 07:24:27;;;;;;;2.08;0.60;;;7.50;97.50;;;;;;4174590;28;20900;-80
2022/04/08 07:26:29;;;;;;;4.00;1.00;;;7.50;97.00;;;;;;4176491;28;20068;-78
2022/04/08 07:28:32;;;;;;;2.05;0.60;;;7.50;97.10;;;;;;4195234;28;20061;-80
2022/04/08 07:30:34;;;;;;;6.15;1.20;;;7.50;97.40;;;;;;4189741;28;20100;-81
2022/04/08 07:32:35;;;;;;;2.70;1.00;;;7.50;98.10;;;;;;4185299;28;20065;-81
2022/04/08 07:34:37;;;;;;;5.72;1.15;;;7.50;98.00;;;;;;4181646;28;20053;-80
2022/04/08 07:36:39;;;;;;;3.17;0.90;;;7.60;98.10;;;;;;4185081;28;20113;-80
2022/04/08 07:38:40;;;;;;;2.95;0.90;;;7.60;98.40;;;;;;4186706;28;20054;-81
2022/04/08 07:40:43;;;;;;;1.48;0.80;;;7.70;98.20;;;;;;4183774;28;20789;-80
2022/04/08 07:42:45;;;;;;;4.55;0.60;;;7.60;98.60;;;;;;4186229;28;20084;-79
2022/04/08 07:44:47;;;;;;;1.40;0.68;;;7.60;99.20;;;;;;4179980;28;20064;-80
2022/04/08 07:46:48;;;;;;;1.35;0.68;;;7.70;98.90;;;;;;4187508;28;20762;-79
2022/04/08 07:48:50;;;;;;;1.73;0.57;;;7.70;98.70;;;;;;4180284;28;20200;-78
2022/04/08 07:50:52;;;;;;;1.52;0.88;;;7.70;98.20;;;;;;4184302;28;20087;-80
2022/04/08 07:52:54;;;;;;;2.97;0.90;;;7.70;98.50;;;;;;4176417;28;20104;-77
2022/04/08 07:54:56;;;;;;;2.22;0.63;;;7.70;98.60;;;;;;4178173;28;20061;-77
2022/04/08 07:56:59;;;;;;;6.03;1.27;;;7.70;98.60;;;;;;4180290;28;20964;-76
2022/04/08 07:59:02;;;;;;;2.65;0.60;;;7.80;98.60;;;;;;4175229;28;20780;-77
2022/04/08 08:01:04;;;;;;;0.95;0.52;;;7.90;98.80;;;;;;4190692;28;20118;-77
2022/04/08 08:03:06;;;;;;;1.85;0.52;;;8.10;98.70;;;;;;4176862;28;20041;-78
2022/04/08 08:05:09;;;;;;;2.00;0.60;;;8.20;98.50;;;;;;4179880;28;20101;-79
2022/04/08 08:07:10;;;;;;;1.88;0.50;;;8.40;98.30;;;;;;4182337;28;20054;-79
2022/04/08 08:09:12;;;;;;;2.90;0.60;;;8.50;97.70;;;;;;4182294;28;20070;-78
2022/04/08 08:11:15;;;;;;;0.85;0.50;;;8.40;97.00;;;;;;4186385;28;20061;-78
2022/04/08 08:13:28;;;;;;;7.47;2.45;;;8.50;97.10;;;;;;4177795;28;20057;-78
2022/04/08 08:15:31;;;;;;;0.40;0.40;;;8.50;97.50;;;;;;4180760;28;20062;-77
2022/04/08 08:17:33;;;;;;;1.17;0.70;;;8.60;97.10;;;;;;4184530;28;20058;-79
2022/04/08 08:19:36;;;;;;;1.08;0.40;;;8.50;97.70;;;;;;4184221;28;20116;-79
2022/04/08 08:21:38;;;;;;;3.47;0.80;;;8.50;97.70;;;;;;4184102;28;20083;-76
2022/04/08 08:23:39;;;;;;;1.30;0.50;;;8.60;97.50;;;;;;4184628;28;20123;-76
2022/04/08 08:25:43;;;;;;;2.38;0.60;;;8.70;97.60;;;;;;4182583;28;20056;-76
2022/04/08 08:27:48;;;;;;;1.67;0.82;;;8.50;97.10;;;;;;4177739;28;20883;-78
2022/04/08 08:29:49;;;;;;;2.53;0.50;;;8.60;97.90;;;;;;4181130;28;20083;-78
2022/04/08 08:31:51;;;;;;;0.50;0.50;;;8.70;97.90;;;;;;4182079;28;20761;-76
2022/04/08 08:33:55;;;;;;;1.40;0.40;;;8.80;97.60;;;;;;4201381;28;20057;-78
2022/04/08 08:35:57;;;;;;;1.70;0.50;;;8.80;96.10;;;;;;4184416;28;20776;-78
2022/04/08 08:38:00;;;;;;;0.77;0.50;;;8.80;97.00;;;;;;4183362;28;20800;-77
2022/04/08 08:40:06;;;;;;;2.35;0.47;;;8.80;97.60;;;;;;4181295;28;20148;-77
2022/04/08 08:42:09;;;;;;;1.77;0.40;;;8.80;97.00;;;;;;4176972;28;20061;-77
2022/04/08 08:44:10;;;;;;;0.60;0.50;;;8.90;96.90;;;;;;4180032;28;20888;-77
2022/04/08 08:46:12;;;;;;;1.63;0.70;;;8.80;96.80;;;;;;4179857;28;20058;-77
2022/04/08 08:48:15;;;;;;;0.88;0.50;;;8.70;97.90;;;;;;4175285;28;20080;-77
2022/04/08 08:50:18;;;;;;;3.97;0.60;;;8.90;97.60;;;;;;4173042;28;20050;-75
2022/04/08 08:52:20;;;;;;;1.00;0.50;;;8.90;97.70;;;;;;4176827;28;20061;-76
2022/04/08 08:54:21;;;;;;;0.57;0.50;;;8.90;98.50;;;;;;4169311;28;20054;-76
2022/04/08 08:56:24;;;;;;;0.73;0.45;;;8.80;98.00;;;;;;4182089;28;20065;-77
2022/04/08 08:58:29;;;;;;;1.80;1.08;;;8.70;97.90;;;;;;4186999;28;20100;-77
2022/04/08 09:00:31;;;;;;;0.73;0.63;;;8.70;98.30;;;;;;4178940;28;20063;-76
2022/04/08 09:02:34;;;;;;;2.38;0.93;;;8.70;98.90;;;;;;4197209;28;20054;-78
2022/04/08 09:04:41;;;;;;;4.43;0.73;;;8.80;99.10;;;;;;4178217;28;20054;-77
2022/04/08 09:06:43;;;;;;;1.95;0.65;;;8.70;98.30;;;;;;4179225;28;20630;-76
2022/04/08 09:08:56;;;;;;;0.40;0.40;;;8.60;97.90;;;;;;4180300;28;20058;-77
2022/04/08 09:10:57;;;;;;;0.68;0.68;;;8.50;97.70;;;;;;4170439;28;20049;-77
2022/04/08 09:13:00;;;;;;;0.80;0.32;;;8.40;98.60;;;;;;4175893;28;20045;-76
2022/04/08 09:15:03;;;;;;;0.50;0.50;;;8.40;98.40;;;;;;4178809;28;20083;-76
2022/04/08 09:17:05;;;;;;;2.63;0.50;;;8.30;98.30;;;;;;4181584;28;20057;-76
2022/04/08 09:19:14;;;;;;;3.50;0.80;;;8.30;99.40;;;;;;4182486;28;20065;-76
2022/04/08 09:21:23;;;;;;;1.10;0.50;;;8.40;98.80;;;;;;4180953;28;20053;-77
2022/04/08 09:23:28;;;;;;;1.42;0.47;;;8.40;98.30;;;;;;4175624;28;21574;-76
2022/04/08 09:25:29;;;;;;;0.70;0.50;;;8.50;98.00;;;;;;4172055;28;20058;-76
2022/04/08 09:27:34;;;;;;;0.45;0.40;;;8.50;97.80;;;;;;4179145;28;20820;-76
2022/04/08 09:29:36;;;;;;;1.88;0.50;;;8.60;97.70;;;;;;4175767;28;20112;-76
2022/04/08 09:31:58;;;;;;;1.65;0.50;;;8.70;98.40;;;;;;4177425;28;20065;-76
2022/04/08 09:34:00;;;;;;;0.38;0.30;;;8.70;98.00;;;;;;4176419;28;20844;-76
2022/04/08 09:36:01;;;;;;;0.40;0.40;;;8.70;97.70;;;;;;4173630;28;20058;-76
2022/04/08 09:38:03;;;;;;;0.47;0.38;;;8.70;97.90;;;;;;4173174;28;20064;-76
2022/04/08 09:40:07;;;;;;;1.48;0.50;;;8.60;98.30;;;;;;4177554;28;20065;-75
2022/04/08 09:42:09;;;;;;;4.22;1.30;;;8.40;98.30;;;;;;4174594;28;20062;-75
2022/04/08 09:44:13;;;;;;;2.78;0.82;;;8.30;99.40;;;;;;4168215;28;20065;-76
2022/04/08 09:46:17;;;;;;;1.35;0.47;;;8.30;99.00;;;;;;4178674;28;20757;-76
2022/04/08 09:48:18;;;;;;;1.55;0.40;;;8.10;99.50;;;;;;4180266;28;20124;-76
2022/04/08 09:50:20;;;;;;;2.58;0.52;;;8.10;99.60;;;;;;4179740;28;20065;-76
2022/04/08 09:52:23;;;;;;;0.80;0.80;;;8.00;99.20;;;;;;4171938;28;20058;-77
2022/04/08 09:54:28;;;;;;;0.85;0.50;;;8.00;99.90;;;;;;4182120;28;20054;-77
2022/04/08 09:56:30;;;;;;;2.53;0.60;;;8.10;99.90;;;;;;4210206;28;20075;-77
2022/04/08 09:58:35;;;;;;;1.25;0.40;;;8.20;99.90;;;;;;4193596;28;20057;-78
2022/04/08 10:00:37;;;;;;;3.97;0.60;;;8.00;99.90;;;;;;4188098;28;20050;-78
2022/04/08 10:02:41;;;;;;;3.22;0.85;;;7.90;99.90;;;;;;4175768;28;20065;-78
2022/04/08 10:04:44;;;;;;;3.00;0.50;;;7.90;99.90;;;;;;4186233;28;20053;-79
2022/04/08 10:06:46;;;;;;;1.95;0.40;;;7.80;99.90;;;;;;4189904;28;20045;-79
2022/04/08 10:08:49;;;;;;;2.85;0.73;;;7.70;99.90;;;;;;4187250;28;20058;-78
2022/04/08 10:11:06;;;;;;;0.70;0.50;;;7.80;99.90;;;;;;4185949;28;20062;-78
2022/04/08 10:13:32;;;;;;;4.05;0.50;;;8.00;99.90;;;;;;4187411;28;20050;-79
2022/04/08 10:15:49;;;;;;;1.27;0.50;;;8.20;99.90;;;;;;4185780;28;20148;-79
2022/04/08 10:17:59;;;;;;;0.60;0.55;;;8.30;99.90;;;;;;4181929;28;20081;-79
2022/04/08 10:20:20;;;;;;;2.25;0.70;;;8.20;99.90;;;;;;4182140;28;20064;-79
2022/04/08 10:22:22;;;;;;;3.33;0.65;;;8.10;99.90;;;;;;4182598;28;20054;-80
2022/04/08 10:24:29;;;;;;;0.68;0.47;;;7.90;99.90;;;;;;4188187;28;20076;-79
2022/04/08 10:26:30;;;;;;;1.20;0.60;;;7.70;99.90;;;;;;4185960;28;20104;-79
2022/04/08 10:28:36;;;;;;;0.70;0.70;;;7.60;99.90;;;;;;4181337;28;20041;-79
2022/04/08 10:30:49;;;;;;;2.58;0.70;;;7.60;99.90;;;;;;4184452;28;20050;-79
2022/04/08 10:33:02;;;;;;;2.58;0.52;;;7.60;99.90;;;;;;4182403;28;20054;-78
2022/04/08 10:35:17;;;;;;;1.35;0.60;;;7.50;99.90;;;;;;4185292;28;20057;-79
2022/04/08 10:37:21;;;;;;;0.68;0.47;;;7.30;99.90;;;;;;4188275;28;20049;-78
2022/04/08 10:39:23;;;;;;;3.78;1.55;;;7.30;99.90;;;;;;4189660;28;20659;-78
2022/04/08 10:41:25;;;;;;;3.33;1.10;;;7.30;99.90;;;;;;4182535;28;21161;-78
2022/04/08 10:43:27;;;;;;;1.40;1.00;;;7.40;99.90;;;;;;4184213;28;20143;-78
2022/04/08 10:45:29;;;;;;;1.13;0.70;;;7.40;99.90;;;;;;4184458;28;20156;-79
2022/04/08 10:47:33;;;;;;;0.90;0.82;;;7.50;99.90;;;;;;4180784;28;20861;-77